Página principal
METAR-TAF:

METAR-TAF

Aeroportos :

Payam

Karaj, Irão

latitude: 35-46-34N, longitude: 050-49-36E, altura: 1271 m

Observação actual do tempo

O boletim foi feito há 45 minutos, às 12:00 UTC
Vento 14 kt de sudeste
Temperatura 39°C
Humidade 8%
Pressão 1007 hPa
Visibilidade 10 km ou mais
Poucas nuvensa uma altura de 4000 ft

METAR: OIIP 201200Z 14014KT 9999 FEW040 39/M02 Q1007

Hora: 17:15 (12:45 UTC)


TAF: em falta

Observações e previsões do tempo de mais de 4000 aeroportos (mensagens METAR e TAF).

As estações disponíveis são os pontos amarelos e vermelhos sobre o mapa.

Mova o rato sobre o mapa para ver o nome da estação.

Depois clique no ponto para visualizar as observações e previsões meteorológicas.

Para alterar o mapa : clique nos botões verdes com uma cruz preta para aumentar o zoom; no botão verde com uma pitada de zoom; ou nas setas verdes para mapas adjacentes.


METAR-TAF: